Time;durP1;ratioP1;P1;durP2;ratioP2;P2;SDS_P1;SDS_P2;PMS_P1;PMS_P2;Temp;Humidity;BMP_temperature;BMP_pressure;BME280_temperature;BME280_humidity;BME280_pressure;Samples;Min_cycle;Max_cycle;Signal;HPM_P1;HPM_P2
2023/12/06 00:00:46;;;;;;;45.17;22.73;;;4.70;99.90;;;;;;4924353;28;87749;-77
2023/12/06 00:03:12;;;;;;;42.05;21.70;;;4.80;99.90;;;;;;4926282;28;87939;-77
2023/12/06 00:05:39;;;;;;;42.80;22.77;;;4.70;99.90;;;;;;4928582;28;89434;-77
2023/12/06 00:08:05;;;;;;;45.78;22.98;;;4.70;99.90;;;;;;4925169;28;88463;-77
2023/12/06 00:10:31;;;;;;;41.53;21.33;;;4.70;99.90;;;;;;4927103;28;87604;-77
2023/12/06 00:12:56;;;;;;;41.38;20.83;;;4.80;99.90;;;;;;4928165;28;87165;-77
2023/12/06 00:15:22;;;;;;;41.55;21.60;;;4.80;99.90;;;;;;4925566;28;91411;-77
2023/12/06 00:17:48;;;;;;;40.75;21.20;;;4.80;99.90;;;;;;4926643;28;92351;-77
2023/12/06 00:20:13;;;;;;;41.15;20.75;;;4.70;99.90;;;;;;4923586;28;88900;-77
2023/12/06 00:22:39;;;;;;;42.65;21.35;;;4.70;99.90;;;;;;4926057;28;91010;-77
2023/12/06 00:25:05;;;;;;;39.90;20.73;;;4.80;99.90;;;;;;4924558;28;88567;-77
2023/12/06 00:27:31;;;;;;;35.58;18.63;;;4.70;99.90;;;;;;4925444;28;90355;-77
2023/12/06 00:29:57;;;;;;;38.45;20.30;;;4.80;99.90;;;;;;4927020;28;87174;-78
2023/12/06 00:32:23;;;;;;;36.35;19.98;;;4.80;99.90;;;;;;4926929;28;87862;-77
2023/12/06 00:34:48;;;;;;;40.72;22.38;;;4.90;99.90;;;;;;4924850;28;88225;-77
2023/12/06 00:37:14;;;;;;;36.17;20.15;;;4.80;99.90;;;;;;4926092;28;88340;-77
2023/12/06 00:39:40;;;;;;;40.78;20.90;;;4.70;99.90;;;;;;4927048;28;87827;-77
2023/12/06 00:42:06;;;;;;;37.45;19.70;;;4.70;99.90;;;;;;4926486;28;87760;-77
2023/12/06 00:44:32;;;;;;;36.28;18.55;;;4.70;99.90;;;;;;4908752;28;91854;-78
2023/12/06 00:46:58;;;;;;;40.45;19.90;;;4.70;99.90;;;;;;4925287;28;87668;-78
2023/12/06 00:49:24;;;;;;;37.90;19.40;;;4.80;99.90;;;;;;4924660;28;87616;-78
2023/12/06 00:51:50;;;;;;;38.20;19.73;;;4.90;99.90;;;;;;4924237;28;94296;-77
2023/12/06 00:54:15;;;;;;;34.58;18.73;;;4.90;99.90;;;;;;4925672;28;87912;-78
2023/12/06 00:56:41;;;;;;;40.83;20.80;;;4.90;99.90;;;;;;4926003;28;87626;-77
2023/12/06 00:59:07;;;;;;;40.22;19.90;;;4.80;99.90;;;;;;4923820;28;87720;-78
2023/12/06 01:01:32;;;;;;;39.92;20.90;;;4.90;99.90;;;;;;4925074;28;90132;-77
2023/12/06 01:03:58;;;;;;;40.50;21.10;;;4.70;99.90;;;;;;4924899;28;88419;-78
2023/12/06 01:06:24;;;;;;;42.83;21.05;;;4.80;99.90;;;;;;4923534;28;91382;-77
2023/12/06 01:08:49;;;;;;;36.28;19.92;;;4.80;99.90;;;;;;4916960;28;88634;-77
2023/12/06 01:11:15;;;;;;;40.47;21.88;;;4.90;99.90;;;;;;4923339;28;90357;-78
2023/12/06 01:13:41;;;;;;;38.10;20.45;;;4.90;99.90;;;;;;4925550;28;88335;-77
2023/12/06 01:16:07;;;;;;;37.75;20.05;;;4.90;99.90;;;;;;4926953;28;88163;-77
2023/12/06 01:18:33;;;;;;;37.72;21.20;;;4.90;99.90;;;;;;4925301;28;87607;-77
2023/12/06 01:20:59;;;;;;;38.13;21.48;;;5.00;99.90;;;;;;4925804;28;89927;-78
2023/12/06 01:23:25;;;;;;;39.70;19.70;;;5.00;99.90;;;;;;4922860;28;90195;-77
2023/12/06 01:25:50;;;;;;;36.03;19.60;;;5.00;99.90;;;;;;4924491;28;89957;-77
2023/12/06 01:28:16;;;;;;;36.30;19.77;;;5.10;99.90;;;;;;4924930;28;87402;-78
2023/12/06 01:30:41;;;;;;;37.10;19.63;;;5.20;99.90;;;;;;4926853;28;89811;-77
2023/12/06 01:33:07;;;;;;;36.92;19.45;;;5.30;99.90;;;;;;4927558;28;89744;-77
2023/12/06 01:35:33;;;;;;;34.97;18.83;;;5.30;99.90;;;;;;4929417;28;89284;-77
2023/12/06 01:37:58;;;;;;;35.35;20.15;;;5.30;99.90;;;;;;4929038;28;87410;-77
2023/12/06 01:40:24;;;;;;;39.42;19.88;;;5.40;99.90;;;;;;4925435;28;90881;-77
2023/12/06 01:42:50;;;;;;;38.63;21.13;;;5.40;99.90;;;;;;4929081;28;91940;-77
2023/12/06 01:45:15;;;;;;;37.97;20.38;;;5.40;99.90;;;;;;4928870;28;87876;-78
2023/12/06 01:47:42;;;;;;;35.13;19.48;;;5.50;99.90;;;;;;4928717;28;87676;-77
2023/12/06 01:50:08;;;;;;;39.30;20.52;;;5.60;99.90;;;;;;4929864;28;86855;-77
2023/12/06 01:52:35;;;;;;;37.03;20.42;;;5.60;99.90;;;;;;4917647;28;91879;-77
2023/12/06 01:57:36;;;;;;;39.33;20.20;;;5.50;99.90;;;;;;4912136;28;88540;-77
2023/12/06 02:00:03;;;;;;;40.88;21.23;;;5.50;99.90;;;;;;4919292;28;88761;-78
2023/12/06 02:02:30;;;;;;;38.13;21.33;;;5.40;99.90;;;;;;4927266;28;90428;-77
2023/12/06 02:04:55;;;;;;;39.20;21.33;;;5.40;99.90;;;;;;4927735;28;88446;-77
2023/12/06 02:07:23;;;;;;;42.05;20.98;;;5.50;99.90;;;;;;4910285;28;88089;-77
2023/12/06 02:09:49;;;;;;;40.22;20.83;;;5.50;99.90;;;;;;4928391;28;87818;-77
2023/12/06 02:12:15;;;;;;;41.53;21.23;;;5.50;99.90;;;;;;4918393;28;90883;-77
2023/12/06 02:14:40;;;;;;;38.88;19.15;;;5.40;99.90;;;;;;4928540;28;89297;-77
2023/12/06 02:17:08;;;;;;;34.80;20.08;;;5.40;99.90;;;;;;4909972;28;87592;-77
2023/12/06 02:19:34;;;;;;;35.67;18.38;;;5.40;99.90;;;;;;4917707;28;89654;-77
2023/12/06 02:22:00;;;;;;;37.67;19.63;;;5.50;99.90;;;;;;4924418;28;90301;-77
2023/12/06 02:24:29;;;;;;;38.17;20.17;;;5.50;99.90;;;;;;4926389;28;92921;-77
2023/12/06 02:26:55;;;;;;;39.40;18.60;;;5.50;99.90;;;;;;4926415;28;87672;-78
2023/12/06 02:29:23;;;;;;;32.45;18.90;;;5.50;99.90;;;;;;4926651;28;90130;-77
2023/12/06 02:31:48;;;;;;;35.60;17.60;;;5.50;99.90;;;;;;4929991;28;88524;-77
2023/12/06 02:34:26;;;;;;;31.15;17.00;;;5.60;99.90;;;;;;4927645;28;88758;-77
2023/12/06 02:36:55;;;;;;;33.83;17.10;;;5.60;99.90;;;;;;4926755;28;87497;-78
2023/12/06 02:39:21;;;;;;;29.02;16.15;;;5.60;99.90;;;;;;4925981;28;87442;-78
2023/12/06 02:41:47;;;;;;;32.67;17.30;;;5.50;99.90;;;;;;4927970;28;88747;-77
2023/12/06 02:44:13;;;;;;;29.95;16.10;;;5.50;99.90;;;;;;4928084;28;91703;-78
2023/12/06 02:46:38;;;;;;;28.48;15.18;;;5.50;99.90;;;;;;4925870;28;88898;-78
2023/12/06 02:49:04;;;;;;;28.95;16.33;;;5.40;99.90;;;;;;4924819;28;87251;-78
2023/12/06 02:51:30;;;;;;;26.52;16.25;;;5.40;99.90;;;;;;4926228;28;90426;-77
2023/12/06 02:53:55;;;;;;;25.90;14.95;;;5.40;99.90;;;;;;4929479;28;88664;-77
2023/12/06 02:56:21;;;;;;;32.13;18.30;;;5.40;99.90;;;;;;4928339;28;87548;-77
2023/12/06 02:58:47;;;;;;;28.25;15.77;;;5.40;99.90;;;;;;4924854;28;88146;-77
2023/12/06 03:01:12;;;;;;;30.58;17.70;;;5.50;99.90;;;;;;4927309;28;89082;-77
2023/12/06 03:03:38;;;;;;;29.20;16.02;;;5.50;99.90;;;;;;4926459;28;88930;-78
2023/12/06 03:06:04;;;;;;;33.75;17.42;;;5.50;99.90;;;;;;4928374;28;87649;-78
2023/12/06 03:08:30;;;;;;;31.20;17.30;;;5.50;99.90;;;;;;4927456;28;87734;-77
2023/12/06 03:10:55;;;;;;;32.00;17.60;;;5.40;99.90;;;;;;4925261;28;91564;-78
2023/12/06 03:13:21;;;;;;;30.77;17.23;;;5.40;99.90;;;;;;4924028;28;92205;-77
2023/12/06 03:15:46;;;;;;;39.40;18.92;;;5.40;99.90;;;;;;4911418;28;87226;-77
2023/12/06 03:18:12;;;;;;;35.45;18.15;;;5.50;99.90;;;;;;4928002;28;87751;-77
2023/12/06 03:20:38;;;;;;;32.00;18.70;;;5.50;99.90;;;;;;4910342;28;91713;-77
2023/12/06 03:23:04;;;;;;;30.73;18.08;;;5.50;99.90;;;;;;4926910;28;88415;-77
2023/12/06 03:25:29;;;;;;;36.05;18.50;;;5.50;99.90;;;;;;4925999;28;88128;-77
2023/12/06 03:27:55;;;;;;;34.20;18.77;;;5.50;99.90;;;;;;4925743;28;89891;-77
2023/12/06 03:30:23;;;;;;;37.78;19.80;;;5.50;99.90;;;;;;4924026;28;91939;-77
2023/12/06 03:32:49;;;;;;;31.40;19.00;;;5.50;99.90;;;;;;4927714;28;88444;-77
2023/12/06 03:35:15;;;;;;;56.03;20.05;;;5.60;99.90;;;;;;4927075;28;88616;-77
2023/12/06 03:37:40;;;;;;;31.52;18.02;;;5.60;99.90;;;;;;4926574;28;90840;-77
2023/12/06 03:40:07;;;;;;;36.85;19.63;;;5.60;99.90;;;;;;4924270;28;91852;-78
2023/12/06 03:42:32;;;;;;;33.90;19.83;;;5.70;99.90;;;;;;4928522;28;88945;-77
2023/12/06 03:44:58;;;;;;;37.58;20.35;;;5.70;99.90;;;;;;4925799;28;87287;-77
2023/12/06 03:47:24;;;;;;;41.55;20.00;;;5.60;99.90;;;;;;4925025;28;87523;-77
2023/12/06 03:49:50;;;;;;;39.70;20.48;;;5.60;99.90;;;;;;4925646;28;91908;-77
2023/12/06 03:52:15;;;;;;;40.25;21.45;;;5.60;99.90;;;;;;4927093;28;86820;-77
2023/12/06 03:54:41;;;;;;;37.55;20.75;;;5.60;99.90;;;;;;4926980;28;87583;-77
2023/12/06 03:57:07;;;;;;;39.75;22.20;;;5.70;99.90;;;;;;4926353;28;90354;-77
2023/12/06 03:59:32;;;;;;;44.45;22.58;;;5.70;99.90;;;;;;4925898;28;89666;-78
2023/12/06 04:01:58;;;;;;;39.13;21.65;;;5.70;99.90;;;;;;4924839;28;90833;-77
2023/12/06 04:04:24;;;;;;;44.00;22.33;;;5.70;99.90;;;;;;4926194;28;87396;-77
2023/12/06 04:06:50;;;;;;;42.95;22.33;;;5.80;99.90;;;;;;4926760;28;87676;-77
2023/12/06 04:09:16;;;;;;;40.80;21.80;;;6.00;99.90;;;;;;4928748;28;88234;-78
2023/12/06 04:11:41;;;;;;;41.08;21.83;;;5.90;99.90;;;;;;4923897;28;91299;-77
2023/12/06 04:14:07;;;;;;;38.05;20.98;;;5.90;99.90;;;;;;4927532;28;87559;-77
2023/12/06 04:16:33;;;;;;;44.55;22.48;;;5.90;99.90;;;;;;4925145;28;88045;-77
2023/12/06 04:18:58;;;;;;;42.63;22.00;;;5.80;99.90;;;;;;4926551;28;87789;-78
2023/12/06 04:21:25;;;;;;;41.35;22.15;;;5.90;99.90;;;;;;4908409;28;90538;-77
2023/12/06 04:23:50;;;;;;;43.83;22.42;;;5.90;99.90;;;;;;4926344;28;88540;-77
2023/12/06 04:26:16;;;;;;;39.92;22.05;;;5.90;99.90;;;;;;4926989;28;87814;-77
2023/12/06 04:28:42;;;;;;;45.17;22.30;;;6.00;99.90;;;;;;4926344;28;88729;-77
2023/12/06 04:31:07;;;;;;;42.17;22.15;;;6.00;99.90;;;;;;4925674;28;90548;-77
2023/12/06 04:33:33;;;;;;;39.92;21.38;;;6.10;99.90;;;;;;4925192;28;87831;-77
2023/12/06 04:35:59;;;;;;;37.53;20.83;;;6.10;99.90;;;;;;4925733;28;87706;-77
2023/12/06 04:38:24;;;;;;;40.60;20.45;;;6.10;99.90;;;;;;4924004;28;88770;-77
2023/12/06 04:40:50;;;;;;;44.67;21.73;;;6.20;99.90;;;;;;4926844;28;94328;-77
2023/12/06 04:43:17;;;;;;;40.65;21.20;;;6.20;99.90;;;;;;4923263;28;87562;-77
2023/12/06 04:45:43;;;;;;;40.55;22.33;;;6.20;99.90;;;;;;4925117;28;87941;-77
2023/12/06 04:48:09;;;;;;;46.42;22.20;;;6.10;99.90;;;;;;4926194;28;89632;-78
2023/12/06 04:50:35;;;;;;;43.28;22.33;;;6.10;99.90;;;;;;4927396;28;92500;-77
2023/12/06 04:53:00;;;;;;;45.95;22.65;;;6.00;99.90;;;;;;4925502;28;87990;-78
2023/12/06 04:55:26;;;;;;;44.22;22.92;;;6.00;99.90;;;;;;4926484;28;87744;-77
2023/12/06 04:57:51;;;;;;;39.47;21.42;;;5.90;99.90;;;;;;4924265;28;90687;-77
2023/12/06 05:00:18;;;;;;;41.72;22.17;;;6.00;99.90;;;;;;4923637;28;91680;-77
2023/12/06 05:02:43;;;;;;;41.42;22.52;;;6.00;99.90;;;;;;4926057;28;87917;-78
2023/12/06 05:05:09;;;;;;;41.45;21.75;;;5.90;99.90;;;;;;4924274;28;90287;-77
2023/12/06 05:07:35;;;;;;;44.00;21.92;;;6.00;99.90;;;;;;4923299;28;91318;-77
2023/12/06 05:10:01;;;;;;;47.13;22.70;;;6.00;99.90;;;;;;4923695;28;90598;-77
2023/12/06 05:12:27;;;;;;;49.40;22.90;;;6.10;99.90;;;;;;4924618;28;88584;-78
2023/12/06 05:14:52;;;;;;;43.67;22.02;;;6.10;99.90;;;;;;4926699;28;89167;-77
2023/12/06 05:17:18;;;;;;;37.47;22.50;;;6.20;99.90;;;;;;4924960;28;88349;-77
2023/12/06 05:19:44;;;;;;;36.80;21.25;;;6.20;99.90;;;;;;4925331;28;88878;-77
2023/12/06 05:22:09;;;;;;;39.88;22.30;;;6.20;99.90;;;;;;4926261;28;87448;-77
2023/12/06 05:24:35;;;;;;;42.28;22.00;;;6.20;99.90;;;;;;4925470;28;91452;-78
2023/12/06 05:27:01;;;;;;;43.70;23.15;;;6.20;99.90;;;;;;4926137;28;88523;-77
2023/12/06 05:29:26;;;;;;;37.10;20.88;;;6.20;99.90;;;;;;4924495;28;88565;-77
2023/12/06 05:31:52;;;;;;;49.00;23.50;;;6.20;99.90;;;;;;4923680;28;87779;-77
2023/12/06 05:34:19;;;;;;;47.25;23.20;;;6.30;99.90;;;;;;4922581;28;89725;-78
2023/12/06 05:36:44;;;;;;;40.08;22.38;;;6.30;99.90;;;;;;4923949;28;91175;-78
2023/12/06 05:39:10;;;;;;;44.95;23.15;;;6.10;99.90;;;;;;4925653;28;90492;-78
2023/12/06 05:41:36;;;;;;;45.95;23.27;;;6.10;99.90;;;;;;4925539;28;87712;-78
2023/12/06 05:44:05;;;;;;;41.58;22.88;;;6.00;99.90;;;;;;4924255;28;87689;-78
2023/12/06 05:46:31;;;;;;;43.78;23.65;;;6.00;99.90;;;;;;4923857;28;88635;-78
2023/12/06 05:48:56;;;;;;;43.83;23.40;;;5.90;99.90;;;;;;4915635;28;90253;-78
2023/12/06 05:51:22;;;;;;;40.72;21.63;;;6.00;99.90;;;;;;4922163;28;87674;-79
2023/12/06 05:53:49;;;;;;;47.00;22.65;;;6.00;99.90;;;;;;4925431;28;87845;-78
2023/12/06 05:56:14;;;;;;;44.50;22.38;;;6.00;99.90;;;;;;4925828;28;87441;-78
2023/12/06 05:58:41;;;;;;;43.15;22.75;;;6.00;99.90;;;;;;4927574;28;88016;-78
2023/12/06 06:01:07;;;;;;;46.40;23.98;;;6.00;99.90;;;;;;4923396;28;88610;-78
2023/12/06 06:03:33;;;;;;;47.60;24.70;;;6.00;99.90;;;;;;4925746;28;87500;-77
2023/12/06 06:06:07;;;;;;;50.33;24.45;;;5.90;99.90;;;;;;4925613;28;88497;-78
2023/12/06 06:08:33;;;;;;;;;;;6.10;99.90;;;;;;4924927;28;93701;-78
2023/12/06 06:10:58;;;;;;;47.63;23.63;;;6.00;99.90;;;;;;4917333;28;87657;-78
2023/12/06 06:13:28;;;;;;;44.97;23.30;;;6.10;99.90;;;;;;4924582;28;88305;-78
2023/12/06 06:15:54;;;;;;;43.22;23.38;;;6.00;99.90;;;;;;4926773;28;91493;-78
2023/12/06 06:18:20;;;;;;;59.13;25.15;;;6.00;99.90;;;;;;4918185;28;91752;-78
2023/12/06 06:20:46;;;;;;;53.65;24.40;;;6.00;99.90;;;;;;4928347;28;87372;-78
2023/12/06 06:23:12;;;;;;;54.50;25.63;;;6.00;99.90;;;;;;4928258;28;87619;-77
2023/12/06 06:25:37;;;;;;;47.80;24.30;;;6.00;99.90;;;;;;4928176;28;88715;-77
2023/12/06 06:28:03;;;;;;;48.60;25.15;;;6.00;99.90;;;;;;4910921;28;89733;-78
2023/12/06 06:30:29;;;;;;;45.60;23.58;;;6.10;99.90;;;;;;4926934;28;87456;-78
2023/12/06 06:32:55;;;;;;;47.30;22.60;;;6.10;99.90;;;;;;4927802;28;89067;-78
2023/12/06 06:35:20;;;;;;;51.17;23.75;;;6.10;99.90;;;;;;4926189;28;91312;-78
2023/12/06 06:37:46;;;;;;;48.58;23.55;;;6.20;99.90;;;;;;4928739;28;87605;-78
2023/12/06 06:40:12;;;;;;;55.03;24.02;;;6.20;99.90;;;;;;4927520;28;87846;-78
2023/12/06 06:42:38;;;;;;;46.33;24.30;;;6.20;99.90;;;;;;4927315;28;87199;-78
2023/12/06 06:45:05;;;;;;;43.08;22.33;;;6.20;99.90;;;;;;4927390;28;88376;-78
2023/12/06 06:47:31;;;;;;;43.33;22.65;;;6.20;99.90;;;;;;4925547;28;94427;-77
2023/12/06 06:49:56;;;;;;;43.08;22.70;;;6.10;99.90;;;;;;4925549;28;88857;-78
2023/12/06 06:52:22;;;;;;;44.28;23.13;;;5.90;99.90;;;;;;4928155;28;87612;-77
2023/12/06 06:54:48;;;;;;;46.22;21.95;;;5.70;99.90;;;;;;4927053;28;88732;-78
2023/12/06 06:57:14;;;;;;;50.05;23.45;;;5.60;99.90;;;;;;4925361;28;91353;-77
2023/12/06 06:59:39;;;;;;;45.42;23.05;;;5.50;99.90;;;;;;4927795;28;87604;-78
2023/12/06 07:02:05;;;;;;;44.72;21.80;;;5.40;99.90;;;;;;4926800;28;87465;-77
2023/12/06 07:04:31;;;;;;;46.60;22.92;;;5.40;99.90;;;;;;4926653;28;87789;-77
2023/12/06 07:06:57;;;;;;;39.63;20.35;;;5.30;99.90;;;;;;4928194;28;87955;-77
2023/12/06 07:09:24;;;;;;;41.50;22.63;;;5.20;99.90;;;;;;4924911;28;87722;-77
2023/12/06 07:11:49;;;;;;;44.65;22.65;;;5.20;99.90;;;;;;4928034;28;89372;-77
2023/12/06 07:14:15;;;;;;;43.05;22.33;;;5.20;99.90;;;;;;4925040;28;91835;-77
2023/12/06 07:16:40;;;;;;;43.22;21.85;;;5.10;99.90;;;;;;4927707;28;89419;-77
2023/12/06 07:19:06;;;;;;;42.95;21.02;;;5.10;99.90;;;;;;4925785;28;87432;-78
2023/12/06 07:21:32;;;;;;;45.97;22.00;;;5.10;99.90;;;;;;4926359;28;89097;-77
2023/12/06 07:23:57;;;;;;;44.00;22.10;;;5.10;99.90;;;;;;4926747;28;88862;-77
2023/12/06 07:26:23;;;;;;;48.10;22.77;;;5.10;99.90;;;;;;4924684;28;88541;-78
2023/12/06 07:28:50;;;;;;;46.65;22.33;;;5.00;99.90;;;;;;4927340;28;87500;-78
2023/12/06 07:31:16;;;;;;;47.47;21.83;;;5.00;99.90;;;;;;4926979;28;89741;-77
2023/12/06 07:33:42;;;;;;;41.65;20.33;;;5.00;99.90;;;;;;4927262;28;88302;-77
2023/12/06 07:36:10;;;;;;;41.33;20.70;;;5.00;99.90;;;;;;4927168;28;87773;-78
2023/12/06 07:38:36;;;;;;;41.88;20.15;;;5.10;99.90;;;;;;4927007;28;88545;-77
2023/12/06 07:41:02;;;;;;;37.85;19.90;;;5.10;99.90;;;;;;4907992;28;89203;-77
2023/12/06 07:43:28;;;;;;;38.45;18.63;;;5.10;99.90;;;;;;4928348;28;88620;-78
2023/12/06 07:45:53;;;;;;;39.13;19.65;;;5.10;99.90;;;;;;4929521;28;89017;-78
2023/12/06 07:48:19;;;;;;;35.95;18.85;;;5.10;99.90;;;;;;4908696;28;87694;-77
2023/12/06 07:50:45;;;;;;;35.78;18.98;;;5.10;99.90;;;;;;4927491;28;87747;-78
2023/12/06 07:53:12;;;;;;;33.42;17.85;;;5.10;99.90;;;;;;4926794;28;89143;-77
2023/12/06 07:55:39;;;;;;;33.05;18.08;;;5.00;99.90;;;;;;4926600;28;91347;-78
2023/12/06 07:58:05;;;;;;;35.88;18.08;;;5.00;99.90;;;;;;4927635;28;87746;-78
2023/12/06 08:00:32;;;;;;;34.05;17.30;;;5.00;99.90;;;;;;4925524;28;90524;-78
2023/12/06 08:02:58;;;;;;;36.40;17.45;;;5.10;99.90;;;;;;4909906;28;91162;-78
2023/12/06 08:05:24;;;;;;;36.67;19.30;;;5.00;99.90;;;;;;4925841;28;88600;-78
2023/12/06 08:07:49;;;;;;;31.33;17.55;;;5.10;99.90;;;;;;4926425;28;87731;-78
2023/12/06 08:10:22;;;;;;;35.55;17.88;;;5.10;99.90;;;;;;4926676;28;87671;-77
2023/12/06 08:12:49;;;;;;;38.80;17.70;;;5.10;99.90;;;;;;4926406;28;91086;-77
2023/12/06 08:15:15;;;;;;;32.22;17.48;;;5.10;99.90;;;;;;4924516;28;87708;-77
2023/12/06 08:17:41;;;;;;;40.03;17.95;;;5.10;99.90;;;;;;4927870;28;87841;-77
2023/12/06 08:20:11;;;;;;;35.40;17.48;;;5.10;99.90;;;;;;4927620;28;87292;-77
2023/12/06 08:22:36;;;;;;;32.97;17.05;;;5.10;99.90;;;;;;4917379;28;90765;-78
2023/12/06 08:25:02;;;;;;;30.67;17.27;;;5.10;99.90;;;;;;4925368;28;88529;-78
2023/12/06 08:27:29;;;;;;;34.45;16.90;;;5.10;99.90;;;;;;4924795;28;88157;-78
2023/12/06 08:29:55;;;;;;;31.00;17.20;;;5.10;99.90;;;;;;4928293;28;87728;-78
2023/12/06 08:32:22;;;;;;;34.67;17.88;;;5.10;99.90;;;;;;4924628;28;90363;-78
2023/12/06 08:34:48;;;;;;;31.48;17.35;;;5.20;99.90;;;;;;4923604;28;91759;-78
2023/12/06 08:37:13;;;;;;;31.98;16.75;;;5.20;99.90;;;;;;4923817;28;87154;-78
2023/12/06 08:39:39;;;;;;;33.42;17.08;;;5.20;99.90;;;;;;4924916;28;87811;-78
2023/12/06 08:42:05;;;;;;;36.20;18.13;;;5.20;99.90;;;;;;4926165;28;89057;-78
2023/12/06 08:44:31;;;;;;;33.75;16.23;;;5.20;99.90;;;;;;4928104;28;92370;-78
2023/12/06 08:46:57;;;;;;;35.70;17.42;;;5.20;99.90;;;;;;4925301;28;87644;-78
2023/12/06 08:49:22;;;;;;;33.78;17.27;;;5.20;99.90;;;;;;4926097;28;92703;-79
2023/12/06 08:51:48;;;;;;;32.90;17.52;;;5.20;99.90;;;;;;4924191;28;90222;-78
2023/12/06 08:54:14;;;;;;;32.80;17.02;;;5.20;99.90;;;;;;4925386;28;89558;-78
2023/12/06 08:56:39;;;;;;;36.97;17.73;;;5.20;99.90;;;;;;4925809;28;87722;-77
2023/12/06 08:59:06;;;;;;;43.85;20.10;;;5.20;99.90;;;;;;4924659;28;87676;-77
2023/12/06 09:01:31;;;;;;;35.03;19.08;;;5.20;99.90;;;;;;4927435;28;88950;-78
2023/12/06 09:03:57;;;;;;;37.10;20.48;;;5.30;99.90;;;;;;4925146;28;87548;-77
2023/12/06 09:06:23;;;;;;;41.25;19.10;;;5.30;99.90;;;;;;4923255;28;87790;-77
2023/12/06 09:08:48;;;;;;;37.15;18.30;;;5.30;99.90;;;;;;4918349;28;88982;-79
2023/12/06 09:11:21;;;;;;;30.98;17.08;;;5.30;99.90;;;;;;4923649;28;91370;-80
2023/12/06 09:13:47;;;;;;;32.15;18.23;;;5.30;99.90;;;;;;4924315;28;90574;-78
2023/12/06 09:16:14;;;;;;;32.90;17.65;;;5.40;99.90;;;;;;4923937;28;88999;-78
2023/12/06 09:18:39;;;;;;;39.70;17.77;;;5.40;99.90;;;;;;4914939;28;89666;-78
2023/12/06 09:21:05;;;;;;;36.17;19.60;;;5.40;99.90;;;;;;4925146;28;89281;-78
2023/12/06 09:23:31;;;;;;;33.17;16.73;;;5.40;99.90;;;;;;4922368;28;96122;-78
2023/12/06 09:25:59;;;;;;;38.55;18.77;;;5.40;99.90;;;;;;4925251;28;87695;-78
2023/12/06 09:28:25;;;;;;;36.03;17.90;;;5.40;99.90;;;;;;4925426;28;87915;-78
2023/12/06 09:30:51;;;;;;;35.78;18.05;;;5.40;99.90;;;;;;4916301;28;91218;-80
2023/12/06 09:33:18;;;;;;;31.70;16.63;;;5.40;99.90;;;;;;4925211;28;88488;-78
2023/12/06 09:35:44;;;;;;;37.70;18.48;;;5.50;99.90;;;;;;4926148;28;87332;-78
2023/12/06 09:38:09;;;;;;;33.08;17.00;;;5.50;99.90;;;;;;4926288;28;87935;-77
2023/12/06 09:40:35;;;;;;;30.52;16.92;;;5.50;99.90;;;;;;4922275;28;93462;-78
2023/12/06 09:43:04;;;;;;;31.23;16.95;;;5.50;99.90;;;;;;4925490;28;89475;-78
2023/12/06 09:45:30;;;;;;;35.53;17.63;;;5.60;99.90;;;;;;4926024;28;87388;-78
2023/12/06 09:47:56;;;;;;;34.97;17.10;;;5.60;99.90;;;;;;4923520;28;89787;-77
2023/12/06 09:50:25;;;;;;;29.77;16.40;;;5.60;99.90;;;;;;4925368;28;92045;-77
2023/12/06 09:52:54;;;;;;;30.77;17.17;;;5.60;99.90;;;;;;4926597;28;89088;-78
2023/12/06 09:55:25;;;;;;;30.45;15.90;;;5.70;99.90;;;;;;4928299;28;87880;-78
2023/12/06 09:57:57;;;;;;;31.35;15.73;;;5.70;99.90;;;;;;4928060;28;88204;-77
2023/12/06 10:00:23;;;;;;;30.67;16.30;;;5.80;99.90;;;;;;4927671;28;87651;-77
2023/12/06 10:02:53;;;;;;;36.38;16.15;;;5.80;99.90;;;;;;4927571;28;91851;-77
2023/12/06 10:05:19;;;;;;;30.25;14.90;;;5.80;99.90;;;;;;4927148;28;88477;-77
2023/12/06 10:07:45;;;;;;;29.42;15.52;;;5.90;99.90;;;;;;4927940;28;87814;-78
2023/12/06 10:10:28;;;;;;;28.10;14.95;;;5.90;99.90;;;;;;4926930;28;88259;-77
2023/12/06 10:12:58;;;;;;;26.45;14.48;;;5.90;99.90;;;;;;4927185;28;91621;-77
2023/12/06 10:15:24;;;;;;;34.30;15.55;;;6.00;99.90;;;;;;4917083;28;87407;-77
2023/12/06 10:17:50;;;;;;;30.27;14.85;;;6.00;99.90;;;;;;4925021;28;87721;-77
2023/12/06 10:20:17;;;;;;;33.92;14.52;;;6.10;99.90;;;;;;4925623;28;91360;-77
2023/12/06 10:22:45;;;;;;;27.65;13.60;;;6.10;99.90;;;;;;4929030;28;88458;-77
2023/12/06 10:25:11;;;;;;;31.77;14.82;;;6.10;99.90;;;;;;4926300;28;87336;-77
2023/12/06 10:27:39;;;;;;;29.25;14.57;;;6.10;99.90;;;;;;4924525;28;87920;-77
2023/12/06 10:30:06;;;;;;;32.75;13.88;;;6.10;99.90;;;;;;4924307;28;89961;-78
2023/12/06 10:32:33;;;;;;;29.35;13.48;;;6.20;99.90;;;;;;4925820;28;95363;-77
2023/12/06 10:35:06;;;;;;;26.70;12.88;;;6.20;99.90;;;;;;4927356;28;88525;-78
2023/12/06 10:37:32;;;;;;;;;;;6.20;99.90;;;;;;4918180;28;90833;-78
2023/12/06 10:40:11;;;;;;;29.08;13.65;;;6.20;99.90;;;;;;4926026;28;91811;-77
2023/12/06 10:42:40;;;;;;;25.13;12.20;;;6.20;99.90;;;;;;4918128;28;91699;-77
2023/12/06 10:45:07;;;;;;;22.83;13.00;;;6.30;99.90;;;;;;4908897;28;87708;-77
2023/12/06 10:47:34;;;;;;;25.80;12.40;;;6.30;99.90;;;;;;4929289;28;86956;-79
2023/12/06 10:50:02;;;;;;;25.55;13.02;;;6.30;99.90;;;;;;4926351;28;88537;-77
2023/12/06 10:52:29;;;;;;;28.92;13.40;;;6.30;99.90;;;;;;4927251;28;88625;-77
2023/12/06 10:54:56;;;;;;;27.75;11.38;;;6.30;99.90;;;;;;4927332;28;88408;-77
2023/12/06 10:57:25;;;;;;;27.77;12.20;;;6.40;99.90;;;;;;4925196;28;89800;-77
2023/12/06 10:59:52;;;;;;;25.77;12.43;;;6.40;99.90;;;;;;4926644;28;91620;-77
2023/12/06 11:02:19;;;;;;;22.45;11.30;;;6.50;99.90;;;;;;4909787;28;90583;-77
2023/12/06 11:04:52;;;;;;;20.10;10.65;;;6.50;99.90;;;;;;4926191;28;87594;-77
2023/12/06 11:07:48;;;;;;;25.70;11.05;;;6.60;99.90;;;;;;4928379;28;87670;-77
2023/12/06 11:10:51;;;;;;;20.45;10.48;;;6.70;99.90;;;;;;4909699;28;88710;-78
2023/12/06 11:13:20;;;;;;;20.90;9.40;;;6.80;99.90;;;;;;4923172;28;87965;-77
2023/12/06 11:16:05;;;;;;;21.95;10.07;;;6.80;99.90;;;;;;4927947;28;87459;-79
2023/12/06 11:18:46;;;;;;;23.70;9.65;;;6.80;99.90;;;;;;4924761;28;88112;-78
2023/12/06 11:21:13;;;;;;;20.15;9.57;;;6.90;99.90;;;;;;4928370;28;89570;-77
2023/12/06 11:23:40;;;;;;;18.23;10.65;;;7.00;99.90;;;;;;4929576;28;90034;-78
2023/12/06 11:26:05;;;;;;;22.67;9.93;;;7.00;99.90;;;;;;4927363;28;87586;-78
2023/12/06 11:28:40;;;;;;;22.15;8.90;;;7.00;99.90;;;;;;4927684;28;88010;-78
2023/12/06 11:31:07;;;;;;;26.00;9.73;;;7.10;99.90;;;;;;4924011;28;92059;-78
2023/12/06 11:33:33;;;;;;;20.83;9.10;;;7.20;99.90;;;;;;4927693;28;88611;-77
2023/12/06 11:35:59;;;;;;;19.17;8.98;;;7.20;99.90;;;;;;4925976;28;87880;-77
2023/12/06 11:38:35;;;;;;;18.77;8.77;;;7.20;99.90;;;;;;4922592;28;90683;-79
2023/12/06 11:41:02;;;;;;;19.17;8.20;;;7.30;99.90;;;;;;4924102;28;87629;-78
2023/12/06 11:43:37;;;;;;;19.17;9.18;;;7.30;99.90;;;;;;4924570;28;89984;-78
2023/12/06 11:46:10;;;;;;;20.45;9.32;;;7.30;99.90;;;;;;4926227;28;88660;-78
2023/12/06 11:48:40;;;;;;;20.73;9.27;;;7.40;99.90;;;;;;4925311;28;90509;-78
2023/12/06 11:51:06;;;;;;;17.40;8.60;;;7.40;99.90;;;;;;4927288;28;91094;-77
2023/12/06 11:53:38;;;;;;;19.50;9.73;;;7.50;99.90;;;;;;4927176;28;89201;-78
2023/12/06 11:56:05;;;;;;;18.73;8.30;;;7.50;99.90;;;;;;4928529;28;87928;-79
2023/12/06 11:58:31;;;;;;;15.55;8.60;;;7.60;99.90;;;;;;4909194;28;90540;-78
2023/12/06 12:01:00;;;;;;;21.08;9.10;;;7.70;99.90;;;;;;4927103;28;89139;-78
2023/12/06 12:03:26;;;;;;;23.30;9.32;;;7.80;99.90;;;;;;4926046;28;91115;-77
2023/12/06 12:05:53;;;;;;;24.65;9.52;;;8.00;99.90;;;;;;4927669;28;87540;-78
2023/12/06 12:08:20;;;;;;;22.92;9.43;;;8.10;99.90;;;;;;4927345;28;87616;-78
2023/12/06 12:10:46;;;;;;;21.50;8.55;;;8.10;99.90;;;;;;4928274;28;89398;-78
2023/12/06 12:13:23;;;;;;;15.50;9.38;;;8.10;99.90;;;;;;4916297;28;92846;-78
2023/12/06 12:15:59;;;;;;;17.98;9.18;;;8.20;99.90;;;;;;4926306;28;87362;-78
2023/12/06 12:18:26;;;;;;;20.60;7.30;;;8.40;99.90;;;;;;4925005;28;87633;-78
2023/12/06 12:20:52;;;;;;;16.60;7.70;;;8.50;99.90;;;;;;4927329;28;89267;-78
2023/12/06 12:23:18;;;;;;;16.45;6.95;;;8.70;99.90;;;;;;4925509;28;88493;-79
2023/12/06 12:25:49;;;;;;;15.73;7.03;;;8.60;99.90;;;;;;4926648;28;87683;-78
2023/12/06 12:28:19;;;;;;;16.45;6.95;;;8.70;99.90;;;;;;4928122;28;87729;-78
2023/12/06 12:30:53;;;;;;;16.38;7.82;;;8.60;99.90;;;;;;4926687;28;88502;-78
2023/12/06 12:33:19;;;;;;;15.32;7.28;;;8.60;99.90;;;;;;4921978;28;91444;-78
2023/12/06 12:35:46;;;;;;;15.73;7.30;;;8.60;99.90;;;;;;4923095;28;88713;-78
2023/12/06 12:38:12;;;;;;;15.13;8.13;;;8.60;99.90;;;;;;4925316;28;88767;-78